Phoenix, AZ (85062)

5:31 PM MST on January 28, 2015 (GMT -0700)
Sherwood Estates | Change Station
CLOSE
Current Station
Personal Weather Station
Location: Scottsdale, AZ
Elevation: 1289 ft
Nearby Weather Stations

Elev 1289 ft 33.48 °N, 111.95 °W | Updated 8 seconds ago

Mostly Cloudy
Mostly Cloudy
70.3 °F
Feels Like 77 °F
N
4.3
Wind Variable Wind from WSW
Gusts 5.8 mph

Today
High -- | Low -- °F
--% Chance of Precip.
Yesterday
High -- | Low -- °F
Precip. -- in
7:26 AM 5:55 PM
Waxing Gibbous, 69% visible
Pressure 30.03 in
Visibility 10.0 miles
Clouds Few 5500 ft
Mostly Cloudy 21000 ft
Mostly Cloudy 25000 ft
Heat Index 77 °F
Dew Point 51 °F
Humidity 50%
Rainfall 0.00 in
Snow Depth Not available.
UV 0 out of 12
Pollen 5.20 out of 12
Air Quality Not available.
Flu Activity Not available.
METAR KPHX 282351Z 27008KT 10SM FEW055 BKN210 BKN250 23/09 A3005 RMK AO2 SLP167 T02280089 10239 20194 55007

More Conditions Fewer Conditions

Pressure 30.03 in
Visibility 10.0 miles
Clouds Few 5500 ft
Mostly Cloudy 21000 ft
Mostly Cloudy 25000 ft
Heat Index 77 °F
Dew Point 51 °F
Humidity 50%
Rainfall 0.00 in
Snow Depth Not available.
UV 0 out of 12
Pollen 5.20 out of 12
Air Quality Not available.
Flu Activity Not available.
METAR KPHX 282351Z 27008KT 10SM FEW055 BKN210 BKN250 23/09 A3005 RMK AO2 SLP167 T02280089 10239 20194 55007

More Conditions Fewer Conditions

10-Day Weather Forecast

Almanac

Astronomy

Jan. 28, 2015 Rise Set
Actual Time
Civil Twilight
Nautical Twilight
Astronomical Twilight
Moon
Length of Visible Light
Length of Day
Tomorrow will be .
, % of the Moon is Illuminated

Today's Extremes

State Highs State Lows

Community

WunderPhotos

Upload Photos

1,791,309 photos uploaded!

WunderBlogs® & News

Nearby

Air Quality

  Air Quality AQ Index Pollutant
Not available.

Snow Depth

Station Depth Elevation

Earthquake Activity

City Distance Mag. Time & Date
Minimum magnitude displayed is 2.5.

Coastal Water Temperatures

Place Temperature

Nearby Weather Stations